Airfield :
LOGIN :

Register | Disclaimer

   EN    FR    IT 

 










Legend :    VFR   Marginal VFR   IFR   Intensive IFR   Very Intensive IFR
Visi :
Ceiling :
>= 8 km
>= 3000ft
5 to 8 km
1000 to 3000 ft
1500m to 5 km
500 to 1000 ft
800 to 1500m
200 to 500 ft
< 800m
< 200 ft
Symbols :   Thunderstorms  Fog  Heavy snow  Heavy precipitations  Wind > 20 kt
SIGMETs :     Misc.  Thunderstorms  Icing  Turbulence  Mountain Waves  Volcanic Ashes






- Airport Elevation : 92 ft


EGXZ - RAP Topcliffe

CURRENT METAR :
  • 212320Z AUTO 18008KT 9999 FEW041/// 07/07 Q0991

EXPIRED METARs :
  • 212250Z AUTO 18008KT 9999 FEW019/// SCT035/// 07/06 Q0992
  • 212220Z AUTO 17008KT 9999 // FEW018/// 06/06 Q0992
  • 212150Z AUTO 18006KT 9999 // SCT055/// 07/05 Q0992
  • 212120Z AUTO 20008KT 9999 BKN045/// 08/06 Q0992
  • 212050Z AUTO 21008KT 9999 OVC047/// 09/07 Q0992
  • 212020Z AUTO 21007KT 9999 BKN044/// 08/06 Q0993
  • 211950Z AUTO 21007KT 9999 FEW050/// 08/06 Q0993
  • 211920Z AUTO 22005KT 9999 FEW055/// 08/04 Q0993
  • 211850Z AUTO 24008KT 9999 NCD 10/06 Q0993

Expired Forecast.



MET'MAP, your aeronautical weather chart ! - Copyright ORBIFLY December 2007 - Disclaimer

ORBIFLY MET'MAP TEAM :

Programming & Development : Alexandra Zaïnal
Original concept : Baudouin d'Aumeries
Technical & hardware support : Manuel Goepfert
Assistance : Marc-Olivier Méhu




SOURCES & CREDITS :

   NOAA